Terminal Aerodrome Forecast
Issued by NWS

Home | Current Version | Previous Version | Graphics & Text | Print | Product List | Glossary On
Versions: 1 2 3 4 5 6 7 8 9 10 11 12 13 14 15 16 17 18
000
FTUS43 KGRB 151908 AAA
TAFAUW
TAF AMD
KAUW 151908Z 1519/1618 05007KT 1 1/2SM -SN SCT015 OVC030
      TEMPO 1519/1522 3SM -SN OVC015
     FM152200 03005KT 4SM -SN BKN015 OVC030
     FM160100 01006KT 5SM -SN BKN020 OVC040
     FM160500 35005KT P6SM -SN SCT020 OVC040
     FM160900 34004KT P6SM FEW015 OVC040
     FM161500 33007KT P6SM SCT020 OVC040=

USA.gov is the U.S. government's official web portal to all federal, state and local government web resources and services.